Time;durP1;ratioP1;P1;durP2;ratioP2;P2;SDS_P1;SDS_P2;PMS_P1;PMS_P2;Temp;Humidity;BMP_temperature;BMP_pressure;BME280_temperature;BME280_humidity;BME280_pressure;Samples;Min_cycle;Max_cycle;Signal;HPM_P1;HPM_P2
2022/10/08 00:00:27;;;;;;;;;;;;;;;15.58;68.20;101678.19;5101152;28;19948;-80
2022/10/08 00:02:53;;;;;;;;;;;;;;;15.57;67.68;101679.09;5098140;28;20305;-79
2022/10/08 00:05:19;;;;;;;;;;;;;;;15.53;68.23;101683.63;5113864;28;19930;-80
2022/10/08 00:07:46;;;;;;;;;;;;;;;15.52;68.24;101682.75;5116284;28;20404;-80
2022/10/08 00:10:12;;;;;;;;;;;;;;;15.52;68.31;101679.22;5120577;27;19915;-80
2022/10/08 00:12:38;;;;;;;;;;;;;;;15.52;68.59;101673.88;5115619;28;20037;-79
2022/10/08 00:15:05;;;;;;;;;;;;;;;15.51;68.27;101675.69;5109075;28;19983;-79
2022/10/08 00:17:31;;;;;;;;;;;;;;;15.49;68.61;101681.97;5107510;28;19922;-80
2022/10/08 00:19:57;;;;;;;;;;;;;;;15.51;68.48;101690.81;5107948;28;19923;-80
2022/10/08 00:22:24;;;;;;;;;;;;;;;15.48;68.35;101678.41;5117661;27;19924;-79
2022/10/08 00:24:52;;;;;;;;;;;;;;;15.49;68.57;101690.84;5115924;27;19927;-79
2022/10/08 00:27:22;;;;;;;;;;;;;;;15.50;68.31;101679.25;5125744;27;19953;-79
2022/10/08 00:29:50;;;;;;;;;;;;;;;15.50;68.27;101678.38;5114819;27;20369;-78
2022/10/08 00:32:18;;;;;;;;;;;;;;;15.49;68.80;101682.84;5116089;27;20388;-79
2022/10/08 00:34:46;;;;;;;;;;;;;;;15.52;68.48;101682.75;5115724;27;20006;-79
2022/10/08 00:37:14;;;;;;;;;;;;;;;15.52;67.96;101682.75;5112542;28;20014;-80
2022/10/08 00:39:40;;;;;;;;;;;;;;;15.53;68.26;101679.16;5116942;27;19961;-80
2022/10/08 00:42:06;;;;;;;;;;;;;;;15.57;68.16;101674.63;5121318;27;19990;-79
2022/10/08 00:44:54;;;;;;;;;;;;;;;15.56;68.28;101674.66;5095269;28;19912;-79
2022/10/08 00:47:25;;;;;;;;;;;;;;;15.60;68.01;101679.00;5114401;28;19912;-79
2022/10/08 00:49:53;;;;;;;;;;;;;;;15.60;67.97;101677.22;5114892;28;20273;-80
2022/10/08 00:52:20;;;;;;;;;;;;;;;15.61;68.23;101686.97;5114563;27;19915;-79
2022/10/08 00:54:49;;;;;;;;;;;;;;;15.64;67.50;101686.03;5112141;27;20297;-80
2022/10/08 00:57:15;;;;;;;;;;;;;;;15.66;67.52;101684.16;5111617;27;19912;-79
2022/10/08 00:59:41;;;;;;;;;;;;;;;15.67;68.10;101688.59;5106420;28;20409;-79
2022/10/08 01:02:07;;;;;;;;;;;;;;;15.71;67.84;101690.25;5109737;28;20514;-78
2022/10/08 01:04:34;;;;;;;;;;;;;;;15.73;68.14;101688.44;5115095;28;19919;-80
2022/10/08 01:07:07;;;;;;;;;;;;;;;15.78;68.03;101694.50;5113432;28;20377;-80
2022/10/08 01:09:53;;;;;;;;;;;;;;;15.81;68.10;101682.84;5121322;27;19923;-80
2022/10/08 01:12:26;;;;;;;;;;;;;;;15.80;67.91;101684.66;5117103;27;19954;-80
2022/10/08 01:14:59;;;;;;;;;;;;;;;15.80;68.41;101682.00;5113325;28;20394;-79
2022/10/08 01:20:27;;;;;;;;;;;;;;;15.74;69.04;101683.94;5093036;27;19913;-79
2022/10/08 01:23:13;;;;;;;;;;;;;;;15.71;68.77;101684.91;5087794;27;20409;-79
2022/10/08 01:25:48;;;;;;;;;;;;;;;15.69;68.37;101670.75;5073865;28;19955;-79
2022/10/08 01:30:58;;;;;;;;;;;;;;;15.65;68.73;101671.72;5083916;27;20394;-79
2022/10/08 01:33:29;;;;;;;;;;;;;;;15.62;68.74;101677.16;5089937;28;19916;-80
2022/10/08 01:35:57;;;;;;;;;;;;;;;15.57;68.61;101677.28;5079827;28;19913;-79
2022/10/08 01:38:32;;;;;;;;;;;;;;;15.53;68.72;101676.50;5089935;28;19916;-79
2022/10/08 01:41:01;;;;;;;;;;;;;;;15.51;69.00;101682.78;5085190;28;19919;-79
2022/10/08 01:43:32;;;;;;;;;;;;;;;15.48;69.43;101685.56;5079618;28;19977;-79
2022/10/08 01:46:01;;;;;;;;;;;;;;;15.47;69.76;101684.66;5090313;28;20369;-79
2022/10/08 01:48:29;;;;;;;;;;;;;;;15.49;68.79;101685.50;5071478;28;20290;-80
2022/10/08 01:51:01;;;;;;;;;;;;;;;15.53;68.73;101687.16;5091185;28;20277;-79
2022/10/08 01:53:32;;;;;;;;;;;;;;;15.53;68.80;101684.50;5079765;28;19916;-79
2022/10/08 01:56:00;;;;;;;;;;;;;;;15.50;68.85;101692.63;5091608;28;19958;-78
2022/10/08 01:58:30;;;;;;;;;;;;;;;15.48;68.88;101691.78;5091164;28;19935;-78
2022/10/08 02:01:01;;;;;;;;;;;;;;;15.43;68.94;101687.50;5081462;28;19912;-78
2022/10/08 02:03:30;;;;;;;;;;;;;;;15.36;69.37;101694.75;5070735;28;19960;-79
2022/10/08 02:05:58;;;;;;;;;;;;;;;15.27;68.37;101687.88;5072196;28;19920;-78
2022/10/08 02:08:25;;;;;;;;;;;;;;;15.21;69.53;101693.38;5089644;28;20389;-78
2022/10/08 02:10:51;;;;;;;;;;;;;;;15.17;69.64;101699.72;5080310;28;19923;-79
2022/10/08 02:13:19;;;;;;;;;;;;;;;15.13;69.59;101700.72;5084032;28;19935;-79
2022/10/08 02:15:53;;;;;;;;;;;;;;;15.00;70.11;101700.13;5074728;28;19913;-78
2022/10/08 02:18:21;;;;;;;;;;;;;;;15.00;69.83;101694.78;5086399;28;20293;-78
2022/10/08 02:20:58;;;;;;;;;;;;;;;14.97;69.82;101697.56;5067756;28;19927;-78
2022/10/08 02:23:28;;;;;;;;;;;;;;;14.93;69.65;101703.84;5079505;28;19970;-78
2022/10/08 02:25:58;;;;;;;;;;;;;;;14.87;69.55;101699.56;5088133;28;20263;-79
2022/10/08 02:31:06;;;;;;;;;;;;;;;14.82;70.12;101705.00;5085786;27;19917;-79
2022/10/08 02:33:36;;;;;;;;;;;;;;;14.81;69.92;101707.72;5091671;28;19933;-79
2022/10/08 02:36:05;;;;;;;;;;;;;;;14.76;69.79;101707.81;5089342;28;19988;-78
2022/10/08 02:38:33;;;;;;;;;;;;;;;14.71;69.54;101707.06;5088607;28;20347;-78
2022/10/08 02:41:02;;;;;;;;;;;;;;;14.70;69.24;101713.28;5080591;28;19920;-78
2022/10/08 02:43:30;;;;;;;;;;;;;;;14.66;69.79;101716.97;5087592;28;19923;-79
2022/10/08 02:45:59;;;;;;;;;;;;;;;14.62;69.57;101710.78;5085541;28;19962;-79
2022/10/08 02:48:28;;;;;;;;;;;;;;;14.56;69.47;101701.13;5086368;28;19925;-79
2022/10/08 02:50:56;;;;;;;;;;;;;;;14.55;69.44;101707.38;5087533;28;19944;-78
2022/10/08 02:53:24;;;;;;;;;;;;;;;14.57;69.20;101705.53;5077841;28;19917;-79
2022/10/08 02:56:00;;;;;;;;;;;;;;;14.57;69.38;101710.00;5085946;28;19970;-78
2022/10/08 02:58:26;;;;;;;;;;;;;;;14.55;69.84;101701.16;5084546;28;19923;-79
2022/10/08 03:00:55;;;;;;;;;;;;;;;14.52;69.97;101715.44;5084701;28;19920;-78
2022/10/08 03:03:26;;;;;;;;;;;;;;;14.48;70.43;101715.53;5085235;28;19955;-79
2022/10/08 03:05:52;;;;;;;;;;;;;;;14.49;69.93;101722.63;5087967;28;19920;-79
2022/10/08 03:08:19;;;;;;;;;;;;;;;14.45;69.75;101719.16;5079713;28;19917;-79
2022/10/08 03:10:46;;;;;;;;;;;;;;;14.44;69.65;101733.38;5086132;28;19974;-79
2022/10/08 03:13:12;;;;;;;;;;;;;;;14.40;69.81;101727.28;5086132;28;19923;-79
2022/10/08 03:15:40;;;;;;;;;;;;;;;14.36;69.91;101741.56;5087077;28;19922;-78
2022/10/08 03:18:07;;;;;;;;;;;;;;;14.34;69.70;101737.16;5084985;28;19916;-78
2022/10/08 03:20:38;;;;;;;;;;;;;;;14.31;69.89;101735.44;5085685;28;19924;-78
2022/10/08 03:23:04;;;;;;;;;;;;;;;14.28;69.89;101737.31;5086819;28;19916;-78
2022/10/08 03:25:30;;;;;;;;;;;;;;;14.26;69.96;101745.34;5081991;28;19992;-79
2022/10/08 03:27:56;;;;;;;;;;;;;;;14.25;69.51;101743.56;5070839;28;19966;-79
2022/10/08 03:30:22;;;;;;;;;;;;;;;14.20;69.69;101741.00;5086953;28;20301;-78
2022/10/08 03:32:48;;;;;;;;;;;;;;;14.18;69.69;101745.50;5082035;28;20011;-79
2022/10/08 03:35:14;;;;;;;;;;;;;;;14.16;69.34;101744.66;5087432;28;19924;-79
2022/10/08 03:37:40;;;;;;;;;;;;;;;14.13;69.52;101746.50;5086007;28;19923;-79
2022/10/08 03:40:06;;;;;;;;;;;;;;;14.11;69.60;101751.88;5086806;28;19912;-79
2022/10/08 03:42:32;;;;;;;;;;;;;;;14.11;69.74;101754.53;5074296;28;19916;-80
2022/10/08 03:45:00;;;;;;;;;;;;;;;14.13;69.79;101760.72;5063254;28;20731;-79
2022/10/08 03:47:26;;;;;;;;;;;;;;;14.14;70.45;101758.91;5074068;28;20003;-79
2022/10/08 03:49:52;;;;;;;;;;;;;;;14.15;69.76;101764.22;5074292;28;20011;-79
2022/10/08 03:52:18;;;;;;;;;;;;;;;14.13;69.98;101768.72;5062971;28;20484;-79
2022/10/08 03:54:44;;;;;;;;;;;;;;;14.09;70.08;101772.31;5072931;28;19916;-79
2022/10/08 03:57:10;;;;;;;;;;;;;;;14.06;69.65;101769.75;5075893;28;19912;-78
2022/10/08 03:59:36;;;;;;;;;;;;;;;14.03;69.76;101775.09;5071614;28;20069;-79
2022/10/08 04:02:02;;;;;;;;;;;;;;;14.01;69.72;101776.94;5070775;28;19912;-79
2022/10/08 04:04:28;;;;;;;;;;;;;;;13.99;70.07;101782.28;5071116;28;19916;-79
2022/10/08 04:06:54;;;;;;;;;;;;;;;14.00;69.89;101786.72;5074241;28;20389;-79
2022/10/08 04:09:20;;;;;;;;;;;;;;;13.97;69.26;101780.56;5072356;28;19928;-79
2022/10/08 04:11:46;;;;;;;;;;;;;;;13.90;69.44;101780.66;5073237;28;19916;-80
2022/10/08 04:14:12;;;;;;;;;;;;;;;13.84;69.32;101788.78;5065748;28;19932;-79
2022/10/08 04:16:38;;;;;;;;;;;;;;;13.79;69.34;101787.13;5073451;28;19920;-79
2022/10/08 04:19:04;;;;;;;;;;;;;;;13.72;69.39;101792.56;5073222;28;19916;-79
2022/10/08 04:21:30;;;;;;;;;;;;;;;13.71;69.02;101790.78;5070071;28;20286;-79
2022/10/08 04:23:56;;;;;;;;;;;;;;;13.67;69.29;101788.22;5064587;28;20399;-79
2022/10/08 04:26:22;;;;;;;;;;;;;;;13.62;69.58;101785.66;5073474;28;19917;-79
2022/10/08 04:28:48;;;;;;;;;;;;;;;13.59;69.71;101802.56;5067378;28;19916;-80
2022/10/08 04:31:16;;;;;;;;;;;;;;;13.61;69.80;101804.28;5070734;28;20592;-80
2022/10/08 04:33:42;;;;;;;;;;;;;;;13.58;70.26;101805.22;5072638;28;19916;-79
2022/10/08 04:36:10;;;;;;;;;;;;;;;13.57;70.33;101809.69;5071703;28;20011;-79
2022/10/08 04:38:36;;;;;;;;;;;;;;;13.57;70.35;101812.34;5071421;28;19929;-79
2022/10/08 04:41:05;;;;;;;;;;;;;;;13.56;70.00;101812.38;5072201;28;19976;-79
2022/10/08 04:43:31;;;;;;;;;;;;;;;13.54;70.24;101820.38;5073557;28;19916;-79
2022/10/08 04:45:57;;;;;;;;;;;;;;;13.54;70.50;101811.50;5072146;28;19918;-79
2022/10/08 04:48:23;;;;;;;;;;;;;;;13.56;69.72;101821.25;5069764;28;19916;-79
2022/10/08 04:50:57;;;;;;;;;;;;;;;13.53;69.97;101818.63;5070852;28;20310;-79
2022/10/08 04:53:25;;;;;;;;;;;;;;;13.52;70.05;101819.53;5071278;28;19917;-79
2022/10/08 04:55:52;;;;;;;;;;;;;;;13.50;70.07;101823.13;5074556;28;19955;-79
2022/10/08 04:58:18;;;;;;;;;;;;;;;13.49;69.96;101827.56;5062933;28;19949;-79
2022/10/08 05:00:44;;;;;;;;;;;;;;;13.48;69.86;101827.59;5066722;28;19920;-79
2022/10/08 05:03:10;;;;;;;;;;;;;;;13.43;70.05;101830.31;5061337;28;19948;-79
2022/10/08 05:05:38;;;;;;;;;;;;;;;13.41;69.96;101837.47;5073694;28;19912;-79
2022/10/08 05:08:04;;;;;;;;;;;;;;;13.41;69.54;101834.81;5067296;28;19916;-83
2022/10/08 05:10:30;;;;;;;;;;;;;;;13.38;69.65;101834.84;5078361;28;19959;-80
2022/10/08 05:12:56;;;;;;;;;;;;;;;13.36;69.58;101842.81;5082307;28;19919;-79
2022/10/08 05:15:22;;;;;;;;;;;;;;;13.34;69.44;101843.75;5071922;28;19917;-80
2022/10/08 05:17:48;;;;;;;;;;;;;;;13.31;69.44;101839.38;5074580;28;19913;-79
2022/10/08 05:20:14;;;;;;;;;;;;;;;13.25;69.66;101852.75;5059397;28;19916;-80
2022/10/08 05:22:40;;;;;;;;;;;;;;;13.26;69.87;101850.06;5070453;28;19917;-79
2022/10/08 05:25:06;;;;;;;;;;;;;;;13.24;69.74;101862.50;5070642;28;19970;-79
2022/10/08 05:27:32;;;;;;;;;;;;;;;13.18;70.05;101862.59;5061208;28;19916;-79
2022/10/08 05:29:58;;;;;;;;;;;;;;;13.21;69.54;101865.22;5070027;28;20018;-79
2022/10/08 05:32:24;;;;;;;;;;;;;;;13.19;69.33;101861.69;5073227;28;19956;-78
2022/10/08 05:34:51;;;;;;;;;;;;;;;13.16;69.18;101868.84;5074648;28;20010;-78
2022/10/08 05:37:17;;;;;;;;;;;;;;;13.14;69.33;101868.00;5073294;28;19917;-79
2022/10/08 05:39:44;;;;;;;;;;;;;;;13.13;69.33;101866.25;5071651;28;19939;-79
2022/10/08 05:42:10;;;;;;;;;;;;;;;13.10;68.88;101880.47;5069019;28;19935;-79
2022/10/08 05:44:36;;;;;;;;;;;;;;;13.07;68.78;101885.81;5072920;28;19913;-78
2022/10/08 05:47:02;;;;;;;;;;;;;;;13.04;68.74;101885.88;5065030;28;19924;-79
2022/10/08 05:49:28;;;;;;;;;;;;;;;13.01;68.86;101877.91;5061173;28;19917;-79
2022/10/08 05:51:54;;;;;;;;;;;;;;;12.98;68.71;101891.28;5061359;28;19969;-79
2022/10/08 05:54:20;;;;;;;;;;;;;;;12.93;68.68;101894.88;5065958;28;19920;-79
2022/10/08 05:56:46;;;;;;;;;;;;;;;12.91;69.41;101899.34;5068369;28;19978;-78
2022/10/08 05:59:15;;;;;;;;;;;;;;;12.91;69.13;101898.44;5068260;28;19916;-79
2022/10/08 06:01:41;;;;;;;;;;;;;;;12.90;69.03;101900.22;5056577;28;19919;-78
2022/10/08 06:04:08;;;;;;;;;;;;;;;12.88;68.59;101910.00;5058186;28;20288;-78
2022/10/08 06:06:35;;;;;;;;;;;;;;;12.86;69.31;101917.13;5068034;28;20294;-78
2022/10/08 06:09:01;;;;;;;;;;;;;;;12.84;69.03;101924.25;5059813;28;19917;-83
2022/10/08 06:11:28;;;;;;;;;;;;;;;12.82;69.30;101911.88;5067198;28;19920;-79
2022/10/08 06:13:55;;;;;;;;;;;;;;;12.84;69.13;101926.91;5073299;28;19920;-79
2022/10/08 06:16:22;;;;;;;;;;;;;;;12.83;69.07;101938.44;5071931;28;19981;-81
2022/10/08 06:18:48;;;;;;;;;;;;;;;12.85;69.44;101952.63;5071693;28;19916;-80
2022/10/08 06:21:15;;;;;;;;;;;;;;;12.84;68.92;101942.88;5070644;28;19939;-80
2022/10/08 06:23:46;;;;;;;;;;;;;;;12.86;69.20;101954.38;5063813;28;19985;-79
2022/10/08 06:26:12;;;;;;;;;;;;;;;12.87;69.22;101950.81;5061650;28;19917;-79
2022/10/08 06:28:38;;;;;;;;;;;;;;;12.92;68.98;101953.41;5069772;28;19939;-79
2022/10/08 06:31:05;;;;;;;;;;;;;;;12.93;69.10;101961.41;5073803;28;19967;-80
2022/10/08 06:33:32;;;;;;;;;;;;;;;12.98;69.20;101971.09;5074983;28;19916;-79
2022/10/08 06:36:02;;;;;;;;;;;;;;;12.98;69.40;101973.75;5064846;28;20006;-78
2022/10/08 06:38:30;;;;;;;;;;;;;;;13.07;69.03;101984.25;5056672;28;20470;-79
2022/10/08 06:40:57;;;;;;;;;;;;;;;13.07;68.74;101981.59;5065854;28;19942;-78
2022/10/08 06:43:23;;;;;;;;;;;;;;;13.11;68.60;101989.53;5064455;28;19924;-79
2022/10/08 06:45:49;;;;;;;;;;;;;;;13.15;68.52;101993.03;5071439;28;19916;-80
2022/10/08 06:48:18;;;;;;;;;;;;;;;13.21;68.99;101997.44;5070525;28;19927;-79
2022/10/08 06:50:47;;;;;;;;;;;;;;;13.20;68.74;102007.16;5069389;28;20382;-79
2022/10/08 06:53:13;;;;;;;;;;;;;;;13.20;68.84;102001.84;5070780;28;19920;-80
2022/10/08 06:55:40;;;;;;;;;;;;;;;13.22;68.42;102005.38;5072276;28;19928;-80
2022/10/08 06:58:06;;;;;;;;;;;;;;;13.26;68.16;102015.09;5071849;28;19924;-79
2022/10/08 07:00:32;;;;;;;;;;;;;;;13.25;68.72;102015.97;5068723;28;19924;-80
2022/10/08 07:02:58;;;;;;;;;;;;;;;13.23;68.55;102012.47;5068924;28;19923;-79
2022/10/08 07:05:24;;;;;;;;;;;;;;;13.26;68.54;102022.19;5068329;28;19917;-80
2022/10/08 07:07:50;;;;;;;;;;;;;;;13.35;68.02;102021.19;5067713;28;20007;-80
2022/10/08 07:10:16;;;;;;;;;;;;;;;13.36;68.35;102021.19;5066516;28;19924;-79
2022/10/08 07:12:42;;;;;;;;;;;;;;;13.38;68.57;102026.50;5071315;28;19916;-79
2022/10/08 07:15:08;;;;;;;;;;;;;;;13.45;68.17;102030.84;5073169;28;19966;-79
2022/10/08 07:17:34;;;;;;;;;;;;;;;13.47;68.17;102023.75;5072531;28;19959;-79
2022/10/08 07:20:00;;;;;;;;;;;;;;;13.51;68.24;102027.25;5065922;28;19916;-79
2022/10/08 07:22:26;;;;;;;;;;;;;;;13.55;68.29;102029.81;5068804;28;19956;-79
2022/10/08 07:24:52;;;;;;;;;;;;;;;13.59;68.33;102034.22;5075519;28;19927;-79
2022/10/08 07:27:19;;;;;;;;;;;;;;;13.61;67.82;102051.94;5074919;28;19923;-79
2022/10/08 07:29:48;;;;;;;;;;;;;;;13.67;67.90;102041.22;5073104;28;20133;-79
2022/10/08 07:32:14;;;;;;;;;;;;;;;13.72;67.98;102042.03;5071233;28;19978;-80
2022/10/08 07:34:40;;;;;;;;;;;;;;;13.78;67.88;102041.94;5075336;28;20382;-79
2022/10/08 07:37:06;;;;;;;;;;;;;;;13.81;67.62;102054.38;5075440;28;19920;-79
2022/10/08 07:39:32;;;;;;;;;;;;;;;13.88;67.74;102061.34;5071749;28;19917;-79
2022/10/08 07:41:58;;;;;;;;;;;;;;;13.88;66.51;102064.00;5071038;28;20000;-79
2022/10/08 07:44:24;;;;;;;;;;;;;;;13.98;66.67;102064.75;5067749;28;19920;-78
2022/10/08 07:46:52;;;;;;;;;;;;;;;14.06;66.73;102073.53;5066470;28;19995;-79
2022/10/08 07:49:18;;;;;;;;;;;;;;;14.11;65.85;102078.78;5062706;28;19924;-79
2022/10/08 07:51:45;;;;;;;;;;;;;;;14.20;65.31;102076.84;5063853;28;19913;-80
2022/10/08 07:54:13;;;;;;;;;;;;;;;14.31;65.17;102078.47;5069040;28;19923;-79
2022/10/08 07:56:39;;;;;;;;;;;;;;;14.29;64.43;102090.94;5059929;28;19967;-78
2022/10/08 07:59:05;;;;;;;;;;;;;;;14.43;63.79;102094.28;5062550;28;19916;-79
2022/10/08 08:01:32;;;;;;;;;;;;;;;14.51;63.20;102096.81;5066064;28;20003;-79
2022/10/08 08:04:01;;;;;;;;;;;;;;;14.62;63.72;102104.66;5059492;28;19952;-79
2022/10/08 08:06:27;;;;;;;;;;;;;;;14.70;63.75;102100.09;5059911;28;19913;-79
2022/10/08 08:08:53;;;;;;;;;;;;;;;14.72;62.88;102108.97;5062265;28;19970;-79
2022/10/08 08:11:21;;;;;;;;;;;;;;;14.76;62.89;102118.66;5070123;28;19971;-79
2022/10/08 08:13:48;;;;;;;;;;;;;;;14.82;62.01;102115.88;5064234;28;19924;-79
2022/10/08 08:16:15;;;;;;;;;;;;;;;14.96;63.06;102120.97;5069748;28;19917;-79
2022/10/08 08:18:42;;;;;;;;;;;;;;;14.97;62.20;102114.72;5067294;28;19931;-78
2022/10/08 08:23:48;;;;;;;;;;;;;;;15.14;62.01;102125.09;5083776;27;19970;-78
2022/10/08 08:26:16;;;;;;;;;;;;;;;15.21;61.29;102131.19;5082973;28;19995;-77
2022/10/08 08:28:43;;;;;;;;;;;;;;;15.29;62.25;102126.59;5067908;28;19963;-79
2022/10/08 08:31:11;;;;;;;;;;;;;;;15.29;59.71;102131.03;5062497;28;20413;-78
2022/10/08 08:33:38;;;;;;;;;;;;;;;15.43;60.39;102141.50;5056148;28;20003;-78
2022/10/08 08:36:04;;;;;;;;;;;;;;;15.37;58.19;102134.47;5063781;28;19920;-79
2022/10/08 08:38:30;;;;;;;;;;;;;;;15.54;60.23;102150.16;5061815;28;19924;-78
2022/10/08 08:41:04;;;;;;;;;;;;;;;15.59;59.02;102147.38;5058090;28;19917;-80
2022/10/08 08:43:30;;;;;;;;;;;;;;;15.73;59.80;102139.97;5059628;28;20293;-79
2022/10/08 08:45:56;;;;;;;;;;;;;;;15.69;56.99;102160.53;5065239;28;19917;-80
2022/10/08 08:48:25;;;;;;;;;;;;;;;15.84;58.26;102146.00;5065419;28;19916;-78
2022/10/08 08:50:54;;;;;;;;;;;;;;;15.90;59.13;102152.13;5068279;28;20414;-76
2022/10/08 08:53:23;;;;;;;;;;;;;;;15.89;56.45;102166.41;5067680;28;19919;-77
2022/10/08 08:55:53;;;;;;;;;;;;;;;15.91;55.07;102160.09;5069282;28;19912;-77
2022/10/08 08:58:24;;;;;;;;;;;;;;;16.07;56.39;102154.44;5070168;28;19917;-79
2022/10/08 09:00:54;;;;;;;;;;;;;;;15.99;54.69;102160.81;5067086;28;20294;-81
2022/10/08 09:03:25;;;;;;;;;;;;;;;16.05;54.64;102167.84;5070710;28;19917;-79
2022/10/08 09:05:53;;;;;;;;;;;;;;;16.13;55.08;102176.56;5070952;28;19913;-79
2022/10/08 09:08:30;;;;;;;;;;;;;;;16.21;53.22;102170.19;5072827;28;20027;-79
2022/10/08 09:10:57;;;;;;;;;;;;;;;16.36;54.82;102185.00;5069324;28;20433;-79
2022/10/08 09:13:28;;;;;;;;;;;;;;;16.36;53.08;102177.84;5066222;28;19919;-75
2022/10/08 09:15:55;;;;;;;;;;;;;;;16.54;54.06;102189.06;5058902;28;19939;-77
2022/10/08 09:18:21;;;;;;;;;;;;;;;16.53;53.44;102185.47;5061992;28;19928;-81
2022/10/08 09:20:47;;;;;;;;;;;;;;;16.66;53.01;102199.47;5060471;28;19917;-78
2022/10/08 09:23:16;;;;;;;;;;;;;;;16.84;53.02;102194.59;5078009;28;20317;-78
2022/10/08 09:25:46;;;;;;;;;;;;;;;16.88;53.37;102207.81;5078854;28;20009;-77
2022/10/08 09:28:32;;;;;;;;;;;;;;;16.98;51.78;102208.50;5075300;28;19916;-77
2022/10/08 09:31:09;;;;;;;;;;;;;;;17.12;52.07;102219.78;5081613;28;19917;-76
2022/10/08 09:33:38;;;;;;;;;;;;;;;17.02;50.76;102215.53;5078324;28;19927;-77
2022/10/08 09:36:04;;;;;;;;;;;;;;;16.89;51.18;102211.41;5076726;28;19917;-75
2022/10/08 09:38:33;;;;;;;;;;;;;;;16.72;51.52;102223.38;5069580;28;20003;-76
2022/10/08 09:43:38;;;;;;;;;;;;;;;16.77;51.67;102229.53;5080855;27;20010;-80
2022/10/08 09:46:10;;;;;;;;;;;;;;;16.88;51.83;102223.88;5069985;28;19920;-81
2022/10/08 09:48:36;;;;;;;;;;;;;;;17.08;51.89;102223.41;5072190;28;19963;-80
2022/10/08 09:51:05;;;;;;;;;;;;;;;17.08;51.40;102231.47;5072326;28;20566;-82
2022/10/08 09:53:37;;;;;;;;;;;;;;;17.04;50.17;102234.28;5065201;28;19936;-78
2022/10/08 09:56:05;;;;;;;;;;;;;;;16.97;50.96;102230.84;5064448;28;19924;-79
2022/10/08 09:58:32;;;;;;;;;;;;;;;17.17;50.14;102230.38;5061681;28;19921;-77
2022/10/08 10:01:01;;;;;;;;;;;;;;;17.34;50.35;102231.72;5063001;28;20425;-76
2022/10/08 10:03:27;;;;;;;;;;;;;;;17.31;50.01;102238.03;5067625;28;19920;-77
2022/10/08 10:05:55;;;;;;;;;;;;;;;17.49;50.71;102242.03;5070102;28;19958;-78
2022/10/08 10:08:42;;;;;;;;;;;;;;;17.64;49.84;102232.69;5060990;28;19943;-78
2022/10/08 10:11:11;;;;;;;;;;;;;;;17.79;49.60;102244.78;5060266;28;19924;-80
2022/10/08 10:13:39;;;;;;;;;;;;;;;17.69;47.89;102254.00;5063881;28;19923;-80
2022/10/08 10:16:11;;;;;;;;;;;;;;;17.56;47.22;102254.34;5066443;28;19919;-81
2022/10/08 10:18:42;;;;;;;;;;;;;;;17.40;47.76;102256.53;5061659;28;19912;-80
2022/10/08 10:21:13;;;;;;;;;;;;;;;17.30;48.07;102250.53;5063018;28;19960;-80
2022/10/08 10:23:43;;;;;;;;;;;;;;;17.40;49.56;102251.19;5063925;28;19917;-81
2022/10/08 10:26:12;;;;;;;;;;;;;;;17.43;49.96;102263.63;5054917;28;19967;-80
2022/10/08 10:31:24;;;;;;;;;;;;;;;17.55;48.35;102257.06;5093525;27;2057091;-80
2022/10/08 10:34:00;;;;;;;;;;;;;;;17.65;48.59;102258.56;5156755;27;19964;-80
2022/10/08 10:36:30;;;;;;;;;;;;;;;17.86;48.99;102261.59;5165556;27;19918;-80
2022/10/08 10:39:07;;;;;;;;;;;;;;;17.87;47.91;102279.41;5142254;27;19912;-80
2022/10/08 10:41:42;;;;;;;;;;;;;;;18.18;48.31;102267.84;5137550;27;19957;-80
2022/10/08 10:44:13;;;;;;;;;;;;;;;18.34;48.35;102274.50;5145678;27;19919;-80
2022/10/08 10:46:56;;;;;;;;;;;;;;;18.31;47.40;102274.63;5145979;27;19916;-81
2022/10/08 10:49:25;;;;;;;;;;;;;;;18.37;47.16;102281.63;5134458;27;19945;-81
2022/10/08 11:00:04;;;;;;;;;;;;;;;18.23;46.70;102284.69;5050782;28;19975;-81
2022/10/08 11:02:35;;;;;;;;;;;;;;;18.29;46.95;102281.81;5046097;28;19924;-81
2022/10/08 11:05:06;;;;;;;;;;;;;;;18.36;46.65;102277.19;5049366;28;19913;-81
2022/10/08 11:07:42;;;;;;;;;;;;;;;18.64;46.50;102279.00;5044283;28;19927;-81
2022/10/08 11:10:29;;;;;;;;;;;;;;;18.78;45.88;102286.63;5044154;28;19959;-82
2022/10/08 11:13:01;;;;;;;;;;;;;;;18.87;44.29;102275.59;5045976;28;19952;-81
2022/10/08 11:15:31;;;;;;;;;;;;;;;19.06;45.33;102287.53;5048755;28;19936;-81
2022/10/08 11:31:41;;;;;;;;;;;;;;;19.45;44.06;102304.19;5056751;27;2907149;-82
2022/10/08 11:34:16;;;;;;;;;;;;;;;19.41;43.74;102298.03;5152811;27;19919;-81
2022/10/08 11:36:48;;;;;;;;;;;;;;;19.39;43.89;102299.91;5148572;27;19933;-81
2022/10/08 11:39:19;;;;;;;;;;;;;;;19.46;44.50;102300.56;5130695;28;20381;-81
2022/10/08 11:41:52;;;;;;;;;;;;;;;19.48;42.01;102307.66;5126554;28;19919;-80
2022/10/08 11:44:19;;;;;;;;;;;;;;;19.46;42.30;102300.56;5131062;28;19936;-79
2022/10/08 11:46:46;;;;;;;;;;;;;;;19.56;42.60;102302.00;5123694;28;19916;-79
2022/10/08 11:51:52;;;;;;;;;;;;;;;19.56;42.61;102310.97;5066997;27;19917;-82
2022/10/08 11:54:33;;;;;;;;;;;;;;;19.62;39.86;102307.16;5059107;28;19917;-82
2022/10/08 11:57:19;;;;;;;;;;;;;;;19.47;38.35;102305.03;5057128;28;20304;-81
2022/10/08 11:59:54;;;;;;;;;;;;;;;19.44;40.16;102306.00;5051759;28;20454;-81
2022/10/08 12:05:14;;;;;;;;;;;;;;;19.25;39.23;102303.03;5072244;27;19919;-81
2022/10/08 12:07:47;;;;;;;;;;;;;;;19.36;39.61;102302.69;5066845;28;20360;-82
2022/10/08 12:10:24;;;;;;;;;;;;;;;19.35;40.16;102301.81;5063755;28;19963;-82
2022/10/08 12:21:16;;;;;;;;;;;;;;;18.89;39.68;102309.53;5079547;27;19946;-80
2022/10/08 12:23:43;;;;;;;;;;;;;;;18.56;40.92;102316.84;5054433;28;20088;-80
2022/10/08 12:26:17;;;;;;;;;;;;;;;18.52;42.15;102312.50;5063637;28;19913;-80
2022/10/08 12:28:45;;;;;;;;;;;;;;;18.58;42.89;102306.94;5054857;28;19917;-80
2022/10/08 12:31:40;;;;;;;;;;;;;;;18.58;41.88;102315.00;5062863;28;19967;-79
2022/10/08 12:34:21;;;;;;;;;;;;;;;18.79;42.04;102315.25;5066362;28;19966;-83
2022/10/08 12:41:55;;;;;;;;;;;;;;;19.24;42.38;102326.34;5057598;28;19921;-83
2022/10/08 12:44:41;;;;;;;;;;;;;;;;;;;;;
2022/10/08 12:46:57;;;;;;;;;;;;;;;18.94;41.49;102330.03;5056373;22;19916;-81
2022/10/08 12:49:29;;;;;;;;;;;;;;;18.84;42.33;102319.56;5049369;28;20357;-81
2022/10/08 12:52:02;;;;;;;;;;;;;;;18.90;42.47;102327.44;5048875;28;19967;-81
2022/10/08 12:54:29;;;;;;;;;;;;;;;18.96;42.03;102326.38;5049818;28;19920;-82
2022/10/08 12:56:55;;;;;;;;;;;;;;;18.78;40.68;102329.59;5048794;28;19917;-82
2022/10/08 12:59:23;;;;;;;;;;;;;;;18.72;41.51;102318.13;5048043;28;19975;-81
2022/10/08 13:01:50;;;;;;;;;;;;;;;18.52;41.81;102325.91;5049185;28;19919;-82
2022/10/08 13:04:21;;;;;;;;;;;;;;;18.41;42.08;102323.53;5047386;28;19913;-81
2022/10/08 13:06:48;;;;;;;;;;;;;;;18.30;42.53;102331.03;5047282;28;19917;-81
2022/10/08 13:09:25;;;;;;;;;;;;;;;18.15;43.32;102340.38;5048914;28;19913;-80
2022/10/08 13:11:51;;;;;;;;;;;;;;;17.89;43.33;102333.88;5047988;28;19974;-80
2022/10/08 13:14:22;;;;;;;;;;;;;;;17.86;44.33;102342.91;5049275;28;19913;-82
2022/10/08 13:16:48;;;;;;;;;;;;;;;17.64;43.70;102331.84;5049832;28;19913;-82
2022/10/08 13:19:18;;;;;;;;;;;;;;;17.63;43.67;102340.81;5048198;28;20051;-83
2022/10/08 13:22:05;;;;;;;;;;;;;;;17.56;43.77;102339.22;5048746;28;19917;-80
2022/10/08 13:24:35;;;;;;;;;;;;;;;17.60;44.49;102344.44;5048893;28;19920;-80
2022/10/08 13:27:01;;;;;;;;;;;;;;;17.66;43.19;102346.13;5048738;28;19917;-81
2022/10/08 13:29:29;;;;;;;;;;;;;;;17.87;43.00;102346.44;5048033;28;20376;-81
2022/10/08 13:32:05;;;;;;;;;;;;;;;17.99;42.65;102340.78;5036345;28;19959;-80
2022/10/08 13:34:33;;;;;;;;;;;;;;;18.17;42.45;102346.56;5034741;28;20032;-80
2022/10/08 13:37:01;;;;;;;;;;;;;;;18.22;42.88;102356.25;5032918;28;19963;-80
2022/10/08 13:39:30;;;;;;;;;;;;;;;18.49;43.25;102358.19;5032706;28;19917;-80
2022/10/08 13:41:58;;;;;;;;;;;;;;;18.49;43.26;102350.13;5034266;28;19925;-80